Time;durP1;ratioP1;P1;durP2;ratioP2;P2;SDS_P1;SDS_P2;PMS_P1;PMS_P2;Temp;Humidity;BMP_temperature;BMP_pressure;BME280_temperature;BME280_humidity;BME280_pressure;Samples;Min_cycle;Max_cycle;Signal;HPM_P1;HPM_P2
2021/01/18 00:00:35;;;;;;;47.33;20.43;;;-13.70;99.90;;;;;;5001064;28;20192;-84
2021/01/18 00:03:04;;;;;;;46.73;19.20;;;-13.70;99.90;;;;;;5032408;28;20211;-85
2021/01/18 00:05:30;;;;;;;44.67;17.03;;;-13.80;99.90;;;;;;5012612;28;20209;-84
2021/01/18 00:07:56;;;;;;;39.10;16.63;;;-13.90;99.90;;;;;;5013185;28;20275;-85
2021/01/18 00:10:23;;;;;;;52.27;18.80;;;-13.90;99.90;;;;;;5012813;28;20218;-85
2021/01/18 00:12:54;;;;;;;45.27;18.83;;;-13.90;99.90;;;;;;5032435;28;20205;-84
2021/01/18 00:15:22;;;;;;;43.83;15.87;;;-13.90;99.90;;;;;;5032372;28;20194;-85
2021/01/18 00:17:48;;;;;;;29.57;12.70;;;-13.90;99.90;;;;;;5017613;28;20184;-85
2021/01/18 00:20:16;;;;;;;43.17;17.50;;;-13.90;99.90;;;;;;5032810;28;20184;-86
2021/01/18 00:22:43;;;;;;;42.40;17.43;;;-13.90;99.90;;;;;;5032662;28;20188;-85
2021/01/18 00:25:21;;;;;;;49.00;18.20;;;-13.90;99.90;;;;;;4998565;28;20216;-85
2021/01/18 00:27:47;;;;;;;45.33;18.73;;;-14.00;99.90;;;;;;5015245;28;20225;-85
2021/01/18 00:30:19;;;;;;;35.87;17.67;;;-14.00;99.90;;;;;;5031221;28;20247;-85
2021/01/18 00:32:45;;;;;;;52.40;21.97;;;-14.00;99.90;;;;;;5011702;28;20200;-86
2021/01/18 00:35:14;;;;;;;52.37;20.13;;;-14.00;99.90;;;;;;5021480;28;20257;-85
2021/01/18 00:37:45;;;;;;;65.07;23.33;;;-14.10;99.90;;;;;;5017133;28;20204;-85
2021/01/18 00:40:12;;;;;;;55.50;22.67;;;-14.10;99.90;;;;;;5020265;28;20189;-88
2021/01/18 00:42:39;;;;;;;24.23;11.17;;;-14.20;99.90;;;;;;5032089;28;20188;-85
2021/01/18 00:45:07;;;;;;;27.63;13.30;;;-14.30;99.90;;;;;;4985067;28;20672;-86
2021/01/18 00:47:47;;;;;;;63.40;22.03;;;-14.30;99.90;;;;;;5033149;28;20186;-85
2021/01/18 00:50:14;;;;;;;35.50;15.30;;;-14.30;99.90;;;;;;5019533;28;20180;-85
2021/01/18 00:52:48;;;;;;;48.77;15.77;;;-14.40;99.90;;;;;;5014772;28;20712;-86
2021/01/18 00:55:18;;;;;;;38.70;15.13;;;-14.40;99.90;;;;;;5033948;28;20172;-85
2021/01/18 00:57:46;;;;;;;26.50;10.33;;;-14.40;99.90;;;;;;5000586;28;20185;-86
2021/01/18 01:00:13;;;;;;;41.73;16.17;;;-14.40;99.90;;;;;;5030973;28;20181;-86
2021/01/18 01:02:40;;;;;;;48.50;19.23;;;-14.40;99.90;;;;;;5031258;28;20193;-86
2021/01/18 01:05:08;;;;;;;43.40;17.80;;;-14.40;99.90;;;;;;5029296;28;20184;-86
2021/01/18 01:07:41;;;;;;;29.77;13.37;;;-14.40;99.90;;;;;;5014443;28;20191;-87
2021/01/18 01:10:11;;;;;;;31.13;14.37;;;-14.50;99.90;;;;;;5032326;28;20184;-87
2021/01/18 01:12:37;;;;;;;34.20;13.90;;;-14.50;99.90;;;;;;5018194;28;20180;-86
2021/01/18 01:15:08;;;;;;;33.13;15.97;;;-14.50;99.90;;;;;;5014407;28;20661;-86
2021/01/18 01:17:44;;;;;;;40.33;15.77;;;-14.50;99.90;;;;;;4998097;28;20179;-86
2021/01/18 01:20:10;;;;;;;27.93;13.90;;;-14.50;99.90;;;;;;5020994;28;20176;-85
2021/01/18 01:22:36;;;;;;;38.00;16.70;;;-14.50;99.90;;;;;;5011458;28;20557;-85
2021/01/18 01:25:02;;;;;;;22.13;10.37;;;-14.50;99.90;;;;;;5013951;28;20191;-86
2021/01/18 01:27:28;;;;;;;33.43;13.30;;;-14.60;99.90;;;;;;5015699;28;20200;-85
2021/01/18 01:29:53;;;;;;;21.27;11.20;;;-14.50;99.90;;;;;;5023037;28;20189;-85
2021/01/18 01:32:19;;;;;;;30.60;14.73;;;-14.50;99.90;;;;;;5001039;28;20195;-86
2021/01/18 01:34:45;;;;;;;39.53;15.40;;;-14.60;99.90;;;;;;5016145;28;20568;-84
2021/01/18 01:37:10;;;;;;;11.83;8.20;;;-14.60;99.90;;;;;;5015903;28;20197;-83
2021/01/18 01:39:36;;;;;;;26.23;12.93;;;-14.60;99.90;;;;;;5023905;28;20710;-84
2021/01/18 01:42:02;;;;;;;26.23;12.03;;;-14.60;99.90;;;;;;5001133;28;20188;-84
2021/01/18 01:44:27;;;;;;;33.20;15.03;;;-14.60;99.90;;;;;;5017704;28;20185;-84
2021/01/18 01:46:53;;;;;;;37.27;14.73;;;-14.60;99.90;;;;;;5033996;28;20774;-85
2021/01/18 01:49:19;;;;;;;36.40;17.10;;;-14.50;99.90;;;;;;5021685;28;20197;-85
2021/01/18 01:51:47;;;;;;;38.67;14.10;;;-14.50;99.90;;;;;;5030245;28;20197;-84
2021/01/18 01:54:14;;;;;;;49.60;16.10;;;-14.60;99.90;;;;;;5035321;28;20176;-85
2021/01/18 01:56:40;;;;;;;25.40;11.87;;;-14.50;99.90;;;;;;5021676;28;20230;-85
2021/01/18 01:59:06;;;;;;;28.17;12.70;;;-14.60;99.90;;;;;;5021157;28;20265;-85
2021/01/18 02:01:34;;;;;;;31.77;15.00;;;-14.60;99.90;;;;;;5034570;28;20185;-87
2021/01/18 02:04:01;;;;;;;30.83;16.27;;;-14.50;99.90;;;;;;5034307;28;20559;-85
2021/01/18 02:06:27;;;;;;;43.63;16.13;;;-14.60;99.90;;;;;;5000712;28;20754;-86
2021/01/18 02:08:53;;;;;;;42.80;17.33;;;-14.60;99.90;;;;;;5017067;28;20271;-86
2021/01/18 02:11:19;;;;;;;26.47;14.33;;;-14.60;99.90;;;;;;5026566;28;20185;-85
2021/01/18 02:14:26;;;;;;;35.07;14.60;;;-14.70;99.90;;;;;;5011681;28;20192;-86
2021/01/18 02:17:02;;;;;;;39.87;14.83;;;-14.70;99.90;;;;;;4919072;29;20194;-87
2021/01/18 02:20:01;;;;;;;31.40;14.87;;;-14.80;99.90;;;;;;5020987;28;20188;-85
2021/01/18 02:23:12;;;;;;;31.87;12.93;;;-14.80;99.90;;;;;;5032916;28;20199;-85
2021/01/18 02:25:44;;;;;;;28.33;13.77;;;-13.30;99.90;;;;;;5029087;28;20216;-86
2021/01/18 02:28:31;;;;;;;37.87;15.93;;;-14.80;99.90;;;;;;5034593;28;20176;-85
2021/01/18 02:31:20;;;;;;;33.80;15.07;;;-14.90;99.90;;;;;;5034466;28;20234;-86
2021/01/18 02:34:17;;;;;;;34.33;14.27;;;-14.90;99.90;;;;;;5016394;28;20239;-85
2021/01/18 02:37:02;;;;;;;34.63;13.07;;;-14.90;99.90;;;;;;5017891;28;20217;-85
2021/01/18 02:39:39;;;;;;;33.23;13.67;;;-14.90;99.90;;;;;;5029988;28;20183;-85
2021/01/18 02:42:10;;;;;;;30.43;13.97;;;-14.90;99.90;;;;;;5034628;28;20180;-85
2021/01/18 02:44:39;;;;;;;54.57;19.00;;;-14.90;99.90;;;;;;5016429;28;20188;-86
2021/01/18 02:47:07;;;;;;;24.83;12.13;;;-14.90;99.90;;;;;;5008565;28;20184;-85
2021/01/18 02:49:33;;;;;;;27.43;12.80;;;-14.90;99.90;;;;;;4998262;28;20216;-84
2021/01/18 02:52:13;;;;;;;34.33;15.17;;;-15.00;99.90;;;;;;5033897;28;20187;-85
2021/01/18 02:54:39;;;;;;;33.73;15.37;;;-15.00;99.90;;;;;;5021849;28;20296;-84
2021/01/18 02:57:16;;;;;;;35.93;14.93;;;-15.00;99.90;;;;;;5028275;28;20304;-86
2021/01/18 02:59:43;;;;;;;48.67;18.33;;;-15.00;99.90;;;;;;5024914;28;20172;-84
2021/01/18 03:02:14;;;;;;;56.43;18.90;;;-15.00;99.90;;;;;;5030877;28;20667;-84
2021/01/18 03:04:58;;;;;;;36.70;14.87;;;-15.00;99.90;;;;;;5014189;28;20192;-86
2021/01/18 03:07:33;;;;;;;39.20;16.43;;;-15.00;99.90;;;;;;5027703;28;20177;-87
2021/01/18 03:10:08;;;;;;;34.83;14.90;;;-15.10;99.90;;;;;;5023978;28;20223;-85
2021/01/18 03:13:00;;;;;;;50.40;17.43;;;-15.10;99.90;;;;;;5001730;28;20187;-85
2021/01/18 03:15:30;;;;;;;39.47;13.73;;;-15.10;99.90;;;;;;5007118;28;20596;-86
2021/01/18 03:18:01;;;;;;;25.40;14.10;;;-15.10;99.90;;;;;;5020746;28;20195;-85
2021/01/18 03:20:28;;;;;;;30.23;13.60;;;-15.10;99.90;;;;;;5033637;28;20188;-86
2021/01/18 03:23:01;;;;;;;40.53;16.83;;;-15.10;99.90;;;;;;5014097;28;20189;-85
2021/01/18 03:25:27;;;;;;;30.57;15.50;;;-15.10;99.90;;;;;;5013948;28;20192;-85
2021/01/18 03:27:57;;;;;;;44.40;17.77;;;-15.00;99.90;;;;;;5030876;28;20603;-87
2021/01/18 03:30:24;;;;;;;30.77;14.57;;;-15.10;99.90;;;;;;5022375;28;20190;-85
2021/01/18 03:32:55;;;;;;;44.67;19.57;;;-15.10;99.90;;;;;;5012863;28;20246;-86
2021/01/18 03:35:21;;;;;;;52.50;18.97;;;-15.10;99.90;;;;;;5023086;28;20724;-86
2021/01/18 03:37:55;;;;;;;47.40;18.90;;;-15.10;99.90;;;;;;5018226;28;20552;-86
2021/01/18 03:40:22;;;;;;;34.60;15.80;;;-15.00;99.90;;;;;;5023205;28;20192;-85
2021/01/18 03:42:57;;;;;;;30.60;14.40;;;-15.10;99.90;;;;;;5013336;28;20181;-85
2021/01/18 03:45:25;;;;;;;32.70;16.33;;;-15.00;99.90;;;;;;5022495;28;20172;-85
2021/01/18 03:47:51;;;;;;;30.53;15.50;;;-15.00;99.90;;;;;;5033325;28;20191;-87
2021/01/18 03:50:17;;;;;;;34.87;14.87;;;-15.00;99.90;;;;;;5025129;28;20189;-87
2021/01/18 03:52:50;;;;;;;38.63;16.77;;;-14.10;99.90;;;;;;5025936;28;20196;-86
2021/01/18 03:55:17;;;;;;;31.57;16.27;;;-15.10;99.90;;;;;;5030479;28;20189;-86
2021/01/18 03:57:47;;;;;;;39.80;16.40;;;-15.00;99.90;;;;;;5020225;28;20645;-86
2021/01/18 04:00:14;;;;;;;42.53;16.73;;;-15.00;99.90;;;;;;5032888;28;20181;-86
2021/01/18 04:02:40;;;;;;;39.83;17.40;;;-15.00;99.90;;;;;;5032555;28;20196;-85
2021/01/18 04:05:06;;;;;;;38.43;18.03;;;-15.10;99.90;;;;;;5033094;28;20240;-86
2021/01/18 04:07:31;;;;;;;58.73;22.47;;;-15.10;99.90;;;;;;5027347;28;20263;-85
2021/01/18 04:09:57;;;;;;;48.17;24.33;;;-15.20;99.90;;;;;;4995391;28;20271;-85
2021/01/18 04:12:23;;;;;;;36.37;17.97;;;-15.30;99.90;;;;;;5012079;28;20300;-86
2021/01/18 04:14:49;;;;;;;34.77;16.50;;;-15.50;99.90;;;;;;5012710;28;20186;-84
2021/01/18 04:17:20;;;;;;;37.37;15.37;;;-15.50;99.90;;;;;;5027686;28;20208;-86
2021/01/18 04:19:46;;;;;;;31.93;13.20;;;-15.60;99.90;;;;;;5031104;28;20283;-85
2021/01/18 04:22:12;;;;;;;34.80;14.47;;;-15.60;99.90;;;;;;5001056;28;20283;-84
2021/01/18 04:24:37;;;;;;;23.67;15.03;;;-15.60;99.90;;;;;;5017079;28;20641;-86
2021/01/18 04:27:07;;;;;;;28.53;14.23;;;-15.70;99.90;;;;;;4998608;28;20564;-87
2021/01/18 04:29:33;;;;;;;36.07;15.17;;;-15.80;99.90;;;;;;5015263;28;20180;-86
2021/01/18 04:31:59;;;;;;;33.53;14.53;;;-15.80;99.90;;;;;;4995118;28;20192;-87
2021/01/18 04:34:24;;;;;;;48.03;16.87;;;-15.80;99.90;;;;;;5017835;28;20270;-85
2021/01/18 04:36:50;;;;;;;44.23;19.67;;;-15.70;99.90;;;;;;5033506;28;20523;-85
2021/01/18 04:39:16;;;;;;;52.23;20.87;;;-15.60;99.90;;;;;;5032121;28;20286;-86
2021/01/18 04:42:01;;;;;;;28.07;13.43;;;-15.60;99.90;;;;;;4998107;28;20516;-85
2021/01/18 04:58:15;;;;;;;33.23;18.50;;;-15.70;99.90;;;;;;5013940;28;20201;-86
2021/01/18 05:00:50;;;;;;;29.97;17.87;;;-15.70;99.90;;;;;;5020177;28;20169;-86
2021/01/18 05:03:17;;;;;;;54.17;23.57;;;-15.70;99.90;;;;;;5017200;28;20250;-85
2021/01/18 05:05:52;;;;;;;38.23;20.77;;;-15.80;99.90;;;;;;5017497;28;20220;-84
2021/01/18 05:15:35;;;;;;;31.47;16.97;;;-16.00;99.90;;;;;;5037132;28;20227;-87
2021/01/18 05:18:24;;;;;;;25.77;15.90;;;-16.00;99.90;;;;;;5019234;28;20234;-88
2021/01/18 05:21:14;;;;;;;43.43;20.40;;;-16.20;99.90;;;;;;5040173;28;20211;-88
2021/01/18 05:23:40;;;;;;;35.10;22.10;;;-14.40;99.90;;;;;;5070096;28;20186;-86
2021/01/18 05:26:26;;;;;;;66.27;27.30;;;-16.30;99.90;;;;;;5070252;28;20183;-87
2021/01/18 05:28:54;;;;;;;73.57;31.50;;;-16.20;99.90;;;;;;5068390;28;20225;-88
2021/01/18 05:31:26;;;;;;;49.50;23.63;;;-16.30;99.90;;;;;;5061491;28;20179;-87
2021/01/18 05:36:38;;;;;;;42.33;18.70;;;-16.30;99.90;;;;;;5029029;28;20216;-85
2021/01/18 05:39:32;;;;;;;50.60;17.60;;;-16.20;99.90;;;;;;5018482;28;20193;-85
2021/01/18 05:41:58;;;;;;;43.63;19.60;;;-16.20;99.90;;;;;;5014110;28;20177;-87
2021/01/18 05:44:36;;;;;;;55.00;22.87;;;-16.20;99.90;;;;;;5035190;28;20199;-86
2021/01/18 05:47:13;;;;;;;39.77;20.53;;;-16.30;99.90;;;;;;5041815;28;20667;-87
2021/01/18 05:49:50;;;;;;;44.67;16.93;;;-16.30;99.90;;;;;;5014146;28;20188;-87
2021/01/18 05:52:23;;;;;;;65.30;23.33;;;-16.40;99.90;;;;;;5016511;28;20199;-88
2021/01/18 05:54:49;;;;;;;42.80;20.07;;;-16.40;99.90;;;;;;4984831;28;20182;-88
2021/01/18 05:57:15;;;;;;;23.50;14.17;;;-16.40;99.90;;;;;;4996195;28;20205;-88
2021/01/18 05:59:42;;;;;;;40.67;18.00;;;-16.50;99.90;;;;;;5033260;28;20193;-87
2021/01/18 06:02:09;;;;;;;33.10;18.77;;;-16.60;99.90;;;;;;5017441;28;20272;-89
2021/01/18 06:04:35;;;;;;;44.20;20.40;;;-16.50;99.90;;;;;;5006590;28;20188;-87
2021/01/18 06:07:03;;;;;;;35.97;19.30;;;-16.50;99.90;;;;;;5018773;28;20177;-87
2021/01/18 06:09:49;;;;;;;58.83;22.33;;;-16.00;99.90;;;;;;5014627;28;20193;-89
2021/01/18 06:12:36;;;;;;;48.20;18.97;;;-14.00;99.90;;;;;;5027655;28;20192;-88
2021/01/18 06:15:03;;;;;;;40.30;21.40;;;-16.00;99.90;;;;;;5024800;28;20188;-88
2021/01/18 06:17:30;;;;;;;53.70;21.43;;;-16.00;99.90;;;;;;5021620;28;20238;-86
2021/01/18 06:19:57;;;;;;;41.30;19.13;;;-17.50;99.90;;;;;;5019792;28;20192;-87
2021/01/18 06:22:30;;;;;;;56.77;26.63;;;-16.00;99.90;;;;;;5016849;28;20262;-88
2021/01/18 06:24:59;;;;;;;64.40;23.70;;;-16.20;99.90;;;;;;5027498;28;20283;-88
2021/01/18 06:27:32;;;;;;;59.17;24.40;;;-16.00;99.90;;;;;;5038548;28;20192;-87
2021/01/18 06:29:58;;;;;;;70.80;26.87;;;-16.20;99.90;;;;;;5020512;28;20200;-88
2021/01/18 06:32:35;;;;;;;36.33;23.30;;;-15.90;99.90;;;;;;5003140;28;20200;-92
2021/01/18 06:35:03;;;;;;;62.90;25.47;;;-14.50;99.90;;;;;;5035022;28;20232;-88
2021/01/18 06:37:31;;;;;;;61.37;28.67;;;-16.00;99.90;;;;;;5057995;28;20204;-88
2021/01/18 06:40:05;;;;;;;59.47;25.43;;;-16.00;99.90;;;;;;5038021;28;20201;-88
2021/01/18 06:42:32;;;;;;;50.27;24.07;;;;;;;;;;5035593;28;20167;-84
2021/01/18 06:44:58;;;;;;;59.70;26.40;;;;;;;;;;5035642;28;20189;-87
2021/01/18 06:47:33;;;;;;;56.17;25.20;;;-16.10;99.90;;;;;;5038321;28;20711;-88
2021/01/18 06:50:01;;;;;;;80.03;29.70;;;-16.20;99.90;;;;;;5038057;28;20175;-86
2021/01/18 06:52:31;;;;;;;107.17;35.27;;;-16.20;99.90;;;;;;5037858;28;20218;-87
2021/01/18 06:55:03;;;;;;;64.37;28.30;;;-16.30;99.90;;;;;;5048919;28;20188;-86
2021/01/18 06:57:29;;;;;;;100.07;32.27;;;;;;;;;;5055747;28;20199;-86
2021/01/18 07:00:01;;;;;;;80.37;32.87;;;-16.30;99.90;;;;;;5036235;28;20237;-86
2021/01/18 07:02:35;;;;;;;60.07;25.97;;;-16.20;99.90;;;;;;5054104;28;20250;-87
2021/01/18 07:05:11;;;;;;;59.63;29.53;;;-15.10;99.90;;;;;;5038237;28;20187;-89
2021/01/18 07:07:38;;;;;;;61.50;24.50;;;-16.10;99.90;;;;;;5055586;28;20206;-89
2021/01/18 07:10:10;;;;;;;52.57;23.77;;;-13.80;99.90;;;;;;5044514;28;20179;-89
2021/01/18 07:12:36;;;;;;;59.43;25.80;;;;;;;;;;5037376;28;20539;-88
2021/01/18 07:15:09;;;;;;;43.20;20.53;;;-16.10;99.90;;;;;;5047604;28;20172;-88
2021/01/18 07:17:55;;;;;;;69.40;30.97;;;-16.10;99.90;;;;;;5046504;28;20715;-88
2021/01/18 07:20:25;;;;;;;75.43;33.00;;;-14.10;99.90;;;;;;5053788;28;20179;-88
2021/01/18 07:23:15;;;;;;;97.17;40.97;;;-15.80;99.90;;;;;;5040134;28;20183;-89
2021/01/18 07:25:48;;;;;;;74.53;32.00;;;-15.10;99.90;;;;;;5019445;28;20188;-89
2021/01/18 07:28:19;;;;;;;55.30;31.40;;;-15.50;99.90;;;;;;5052231;28;20169;-89
2021/01/18 07:30:48;;;;;;;41.63;19.80;;;;;;;;;;5053053;28;20159;-89
2021/01/18 07:33:17;;;;;;;69.40;25.53;;;-15.40;99.90;;;;;;5033305;28;20628;-89
2021/01/18 07:35:46;;;;;;;45.77;19.33;;;-15.50;99.90;;;;;;5037528;28;20266;-90
2021/01/18 07:38:22;;;;;;;72.33;31.23;;;-14.90;99.90;;;;;;5035472;28;20187;-89
2021/01/18 07:41:06;;;;;;;80.97;35.93;;;-15.40;99.90;;;;;;5032839;28;20271;-90
2021/01/18 07:43:36;;;;;;;129.43;42.20;;;-14.20;99.90;;;;;;5047471;28;20255;-89
2021/01/18 07:46:31;;;;;;;73.13;30.63;;;-16.00;99.90;;;;;;5032035;28;20270;-91
2021/01/18 07:48:58;;;;;;;90.90;38.87;;;;;;;;;;5051059;28;20565;-89
2021/01/18 07:51:28;;;;;;;67.40;27.30;;;-15.30;99.90;;;;;;5035650;28;20237;-89
2021/01/18 07:53:54;;;;;;;70.10;27.90;;;;;;;;;;5029136;28;20211;-90
2021/01/18 07:56:27;;;;;;;67.60;30.27;;;-13.90;99.90;;;;;;5036183;28;20209;-89
2021/01/18 07:59:01;;;;;;;47.20;23.20;;;-15.90;99.90;;;;;;5060391;28;20186;-89
2021/01/18 08:01:31;;;;;;;63.93;25.87;;;-15.50;99.90;;;;;;5044161;28;20654;-89
2021/01/18 08:04:20;;;;;;;66.27;26.53;;;-15.40;99.90;;;;;;5040504;28;20182;-89
2021/01/18 08:07:07;;;;;;;61.37;26.97;;;-15.50;99.90;;;;;;5052053;28;20240;-89
2021/01/18 08:09:34;;;;;;;50.17;26.57;;;-15.40;99.90;;;;;;5064916;28;20244;-89
2021/01/18 08:12:31;;;;;;;72.80;31.43;;;-13.60;99.90;;;;;;5057035;28;20185;-90
2021/01/18 08:15:07;;;;;;;55.07;22.13;;;-15.00;99.90;;;;;;5049792;28;20222;-92
2021/01/18 08:17:33;;;;;;;48.40;24.30;;;;;;;;;;5056864;28;20209;-90
2021/01/18 08:20:16;;;;;;;63.10;27.90;;;-15.30;99.90;;;;;;5067740;28;20639;-91
2021/01/18 08:22:42;;;;;;;61.90;26.43;;;-15.20;99.90;;;;;;5062197;28;20221;-89
2021/01/18 08:25:09;;;;;;;69.53;27.77;;;-15.80;99.90;;;;;;5059275;28;20182;-91
2021/01/18 08:27:35;;;;;;;46.53;20.30;;;-15.20;99.90;;;;;;5049803;28;20183;-90
2021/01/18 08:30:01;;;;;;;67.23;24.63;;;;;;;;;;5041862;28;20183;-91
2021/01/18 08:32:53;;;;;;;70.10;29.70;;;-15.10;99.90;;;;;;5043571;28;20215;-91
2021/01/18 08:35:22;;;;;;;43.10;23.40;;;;;;;;;;5042002;28;20255;-91
2021/01/18 08:38:06;;;;;;;67.10;27.70;;;-14.90;99.90;;;;;;5047019;28;20711;-90
2021/01/18 08:40:38;;;;;;;62.87;28.43;;;-14.80;99.90;;;;;;5064969;22;20243;-91
2021/01/18 08:43:08;;;;;;;43.00;22.97;;;-14.90;99.90;;;;;;5028252;28;20188;-93
2021/01/18 08:49:33;;;;;;;41.03;18.93;;;-14.80;99.90;;;;;;5348423;23;20238;-92
2021/01/18 08:52:01;;;;;;;39.13;20.67;;;-14.70;99.90;;;;;;5200293;23;20241;-92
2021/01/18 08:54:46;;;;;;;60.60;25.37;;;-14.40;99.90;;;;;;5021563;28;20292;-91
2021/01/18 08:57:23;;;;;;;71.10;30.67;;;-13.40;99.90;;;;;;5025442;28;20224;-90
2021/01/18 09:00:14;;;;;;;38.30;22.67;;;-12.10;99.90;;;;;;5010038;28;20185;-92
2021/01/18 09:02:41;;;;;;;52.10;19.57;;;-14.50;99.90;;;;;;4995069;28;20194;-91
2021/01/18 09:05:19;;;;;;;58.83;23.83;;;-12.50;99.90;;;;;;4995769;28;20192;-91
2021/01/18 09:07:50;;;;;;;41.07;20.57;;;-14.80;99.90;;;;;;4996563;28;20348;-90
2021/01/18 09:10:18;;;;;;;59.70;24.30;;;-12.00;99.90;;;;;;5006028;28;20186;-91
2021/01/18 09:12:45;;;;;;;72.97;32.13;;;-12.10;99.90;;;;;;5012236;28;20190;-88
2021/01/18 09:17:55;;;;;;;35.17;19.33;;;-11.80;99.90;;;;;;5364772;23;20259;-91
2021/01/18 09:20:21;;;;;;;61.67;27.87;;;-14.30;99.90;;;;;;5004718;28;20204;-87
2021/01/18 09:22:47;;;;;;;35.70;20.17;;;;;;;;;;4997005;28;20189;-84
2021/01/18 09:25:15;;;;;;;71.83;29.63;;;-14.40;99.90;;;;;;5015341;28;20552;-85
2021/01/18 09:27:47;;;;;;;61.00;29.73;;;-13.30;99.90;;;;;;5028873;28;20185;-87
2021/01/18 09:30:17;;;;;;;50.50;21.83;;;-14.30;99.90;;;;;;5020012;28;20243;-87
2021/01/18 09:32:56;;;;;;;54.13;22.80;;;-14.30;99.90;;;;;;5004557;28;20546;-94
2021/01/18 09:35:22;;;;;;;74.07;25.57;;;-14.10;99.90;;;;;;4996195;28;20185;-87
2021/01/18 09:37:50;;;;;;;64.70;22.83;;;-12.50;99.90;;;;;;4986966;28;20590;-87
2021/01/18 09:40:16;;;;;;;63.37;26.30;;;-14.40;99.90;;;;;;5017578;28;20173;-86
2021/01/18 09:42:46;;;;;;;82.97;26.67;;;-13.80;99.90;;;;;;5015171;28;20175;-89
2021/01/18 09:45:13;;;;;;;45.70;19.67;;;-14.80;99.90;;;;;;5003559;28;20581;-91
2021/01/18 09:47:39;;;;;;;35.90;18.77;;;-13.70;99.90;;;;;;5009328;28;20182;-92
2021/01/18 09:56:44;;;;;;;71.33;27.90;;;-13.60;99.90;;;;;;5021750;28;20700;-92
2021/01/18 09:59:12;;;;;;;54.63;20.47;;;-13.10;99.90;;;;;;5000044;28;20190;-89
2021/01/18 10:01:40;;;;;;;51.37;25.40;;;;;;;;;;5000820;28;20185;-89
2021/01/18 10:04:08;;;;;;;27.47;13.10;;;;;;;;;;4997807;28;20273;-92
2021/01/18 10:06:36;;;;;;;49.27;20.57;;;-12.90;99.90;;;;;;4995933;28;20193;-90
2021/01/18 10:09:11;;;;;;;37.37;18.53;;;-13.60;99.90;;;;;;4980480;28;20276;-88
2021/01/18 10:11:49;;;;;;;53.20;21.60;;;-11.70;99.90;;;;;;4986349;28;20239;-89
2021/01/18 10:14:20;;;;;;;46.53;22.63;;;-12.10;99.90;;;;;;5002360;28;20232;-90
2021/01/18 10:17:14;;;;;;;35.13;15.60;;;-12.30;99.90;;;;;;5005566;28;20746;-87
2021/01/18 10:19:42;;;;;;;63.57;27.77;;;-12.80;99.90;;;;;;5003626;28;20188;-88
2021/01/18 10:22:19;;;;;;;35.43;17.40;;;-11.80;99.90;;;;;;5016598;28;20239;-87
2021/01/18 10:25:14;;;;;;;42.73;19.40;;;-11.50;99.90;;;;;;4980875;28;20193;-90
2021/01/18 10:27:57;;;;;;;50.13;23.87;;;-10.50;99.90;;;;;;4971629;28;20246;-90
2021/01/18 10:30:28;;;;;;;28.93;13.23;;;-11.80;99.90;;;;;;4997356;28;20282;-90
2021/01/18 10:33:19;;;;;;;42.77;17.10;;;-12.50;99.90;;;;;;4996438;28;20190;-89
2021/01/18 10:35:46;;;;;;;76.43;26.57;;;-12.50;99.90;;;;;;4977900;28;20350;-88
2021/01/18 10:38:20;;;;;;;50.33;20.30;;;-9.90;99.90;;;;;;4969686;28;20190;-90
2021/01/18 10:41:04;;;;;;;48.70;21.03;;;-12.50;99.90;;;;;;4989916;28;20349;-90
2021/01/18 10:43:30;;;;;;;43.47;18.10;;;-11.90;99.90;;;;;;4993751;28;20306;-89
2021/01/18 10:45:57;;;;;;;67.03;27.27;;;-12.20;99.90;;;;;;4991260;28;20237;-88
2021/01/18 10:48:33;;;;;;;33.77;18.23;;;-10.40;99.90;;;;;;4986207;28;20265;-89
2021/01/18 10:51:02;;;;;;;55.40;23.93;;;-12.50;99.90;;;;;;4984277;28;20190;-89
2021/01/18 10:53:35;;;;;;;42.10;19.77;;;-11.90;99.90;;;;;;4977164;28;20269;-90
2021/01/18 10:56:17;;;;;;;64.70;25.87;;;-10.70;99.90;;;;;;5009139;28;20681;-88
2021/01/18 10:58:43;;;;;;;71.93;27.17;;;-10.90;99.90;;;;;;4986224;28;20186;-90
2021/01/18 11:01:17;;;;;;;31.93;12.53;;;-12.50;99.90;;;;;;5000587;28;20701;-89
2021/01/18 11:03:44;;;;;;;39.93;21.87;;;-12.50;99.90;;;;;;5016794;28;20247;-89
2021/01/18 11:06:12;;;;;;;41.40;16.83;;;-10.30;99.90;;;;;;4993122;28;20186;-87
2021/01/18 11:08:38;;;;;;;81.67;26.53;;;;;;;;;;4976991;28;20530;-90
2021/01/18 11:11:22;;;;;;;48.47;19.87;;;-12.20;99.90;;;;;;5012510;28;20554;-87
2021/01/18 11:14:06;;;;;;;50.67;21.17;;;-12.00;99.90;;;;;;5012254;28;20177;-87
2021/01/18 11:16:32;;;;;;;68.50;26.77;;;-11.90;99.90;;;;;;5011613;28;20244;-90
2021/01/18 11:19:05;;;;;;;37.70;16.87;;;-11.80;99.90;;;;;;4987910;28;20252;-87
2021/01/18 11:21:32;;;;;;;57.27;22.43;;;;;;;;;;4997194;28;20244;-88
2021/01/18 11:23:58;;;;;;;46.10;20.57;;;-11.70;99.90;;;;;;4995913;28;20254;-89
2021/01/18 11:26:24;;;;;;;60.37;22.57;;;-11.60;99.90;;;;;;4990522;28;20194;-86
2021/01/18 11:28:50;;;;;;;43.70;18.63;;;-10.20;99.90;;;;;;4987545;28;20595;-90
2021/01/18 11:31:23;;;;;;;46.80;20.50;;;-11.60;99.90;;;;;;5006893;28;20187;-89
2021/01/18 11:33:51;;;;;;;39.37;15.73;;;-11.00;99.90;;;;;;4994442;28;20200;-89
2021/01/18 11:36:24;;;;;;;52.93;19.80;;;-11.70;99.90;;;;;;5003028;28;20242;-90
2021/01/18 11:38:50;;;;;;;29.30;10.97;;;;;;;;;;4988115;28;20199;-87
2021/01/18 11:41:16;;;;;;;43.87;19.73;;;;;;;;;;4997657;28;20183;-88
2021/01/18 11:43:42;;;;;;;70.60;26.43;;;-11.10;99.90;;;;;;4998963;28;20208;-88
2021/01/18 11:46:08;;;;;;;36.00;15.10;;;-9.80;99.90;;;;;;4995827;28;20185;-91
2021/01/18 11:48:38;;;;;;;37.10;17.47;;;-11.10;99.90;;;;;;5002902;28;20514;-92
2021/01/18 11:51:06;;;;;;;43.13;17.47;;;-12.90;99.90;;;;;;4968850;28;20195;-91
2021/01/18 11:53:34;;;;;;;58.67;23.50;;;-9.30;99.90;;;;;;4983315;28;20216;-88
2021/01/18 11:56:08;;;;;;;42.87;22.27;;;-9.30;99.90;;;;;;4993496;28;20228;-90
2021/01/18 11:58:33;;;;;;;65.70;25.00;;;-9.80;99.90;;;;;;4991036;28;20537;-88
2021/01/18 12:00:59;;;;;;;72.60;29.97;;;-8.10;99.90;;;;;;4975704;28;20192;-89
2021/01/18 12:03:25;;;;;;;80.03;30.07;;;;;;;;;;4986981;28;20239;-89
2021/01/18 12:05:52;;;;;;;52.90;23.93;;;;;;;;;;4984895;28;20709;-91
2021/01/18 12:08:20;;;;;;;71.13;28.17;;;-11.00;99.90;;;;;;4978934;28;20220;-90
2021/01/18 12:10:47;;;;;;;63.53;27.00;;;-9.30;99.90;;;;;;4988135;28;20181;-90
2021/01/18 12:13:13;;;;;;;74.23;27.70;;;-6.10;99.90;;;;;;4992850;28;20188;-91
2021/01/18 12:15:40;;;;;;;46.53;22.13;;;-8.70;94.80;;;;;;4990332;28;20181;-90
2021/01/18 12:20:53;;;;;;;55.87;22.93;;;;;;;;;;5014639;28;20372;-89
2021/01/18 12:23:21;;;;;;;44.93;18.80;;;-8.50;93.40;;;;;;5017446;28;20192;-91
2021/01/18 12:25:54;;;;;;;71.73;30.53;;;-8.10;96.10;;;;;;4989720;28;20226;-90
2021/01/18 12:28:20;;;;;;;78.03;27.17;;;;;;;;;;4985861;28;20241;-89
2021/01/18 12:30:58;;;;;;;62.17;26.63;;;-9.70;99.90;;;;;;5022842;28;20196;-89
2021/01/18 12:33:59;;;;;;;65.17;25.63;;;-8.00;99.90;;;;;;4989656;28;20280;-91
2021/01/18 12:39:46;;;;;;;54.27;22.63;;;-7.90;99.90;;;;;;5017428;28;20269;-91
2021/01/18 12:45:32;;;;;;;65.83;25.67;;;-6.10;99.90;;;;;;4955150;28;20578;-93
2021/01/18 12:48:01;;;;;;;62.50;26.63;;;-10.30;98.20;;;;;;5004943;28;20300;-91
2021/01/18 12:50:30;;;;;;;79.40;31.63;;;-7.20;99.90;;;;;;5004518;28;20224;-90
2021/01/18 12:52:56;;;;;;;71.73;25.97;;;-8.20;99.80;;;;;;5010329;28;20220;-88
2021/01/18 12:56:04;;;;;;;39.93;18.23;;;-7.70;98.80;;;;;;4991170;28;20272;-89
2021/01/18 12:58:30;;;;;;;53.63;24.67;;;;;;;;;;5003709;28;20189;-92
2021/01/18 13:00:56;;;;;;;59.50;23.73;;;-10.10;99.70;;;;;;5003197;28;20182;-91
2021/01/18 13:03:24;;;;;;;63.93;27.73;;;-10.20;99.90;;;;;;4998770;28;20181;-89
2021/01/18 13:05:50;;;;;;;76.20;28.23;;;-10.10;99.90;;;;;;4984090;28;20193;-89
2021/01/18 13:08:16;;;;;;;65.23;27.23;;;-7.90;99.90;;;;;;4998928;28;20282;-89
2021/01/18 13:10:42;;;;;;;54.43;21.80;;;;;;;;;;4999157;28;20649;-89
2021/01/18 13:13:09;;;;;;;68.47;27.47;;;-10.40;99.90;;;;;;4998727;28;20262;-88
2021/01/18 13:15:35;;;;;;;78.80;28.33;;;-9.30;99.90;;;;;;4998859;28;20242;-89
2021/01/18 13:18:02;;;;;;;72.33;27.40;;;;;;;;;;5019634;28;20228;-89
2021/01/18 13:20:32;;;;;;;69.80;25.27;;;-10.90;99.90;;;;;;5006044;28;20203;-89
2021/01/18 13:22:58;;;;;;;48.60;17.90;;;;;;;;;;5004040;28;20259;-88
2021/01/18 13:25:26;;;;;;;55.77;23.80;;;;;;;;;;4994115;28;20183;-91
2021/01/18 13:27:58;;;;;;;59.23;25.70;;;-11.00;99.90;;;;;;5016674;28;20188;-91
2021/01/18 13:30:27;;;;;;;74.40;25.77;;;-10.20;99.90;;;;;;5014417;28;20188;-89
2021/01/18 13:32:52;;;;;;;84.07;29.50;;;-11.00;99.90;;;;;;5008910;28;20201;-90
2021/01/18 13:35:18;;;;;;;60.53;27.90;;;-9.80;99.90;;;;;;4993357;28;20200;-90